Time;durP1;ratioP1;P1;durP2;ratioP2;P2;SDS_P1;SDS_P2;PMS_P1;PMS_P2;Temp;Humidity;BMP_temperature;BMP_pressure;BME280_temperature;BME280_humidity;BME280_pressure;Samples;Min_cycle;Max_cycle;Signal;HPM_P1;HPM_P2
2021/10/11 00:00:43;;;;;;;11.13;2.25;;;;;;;;;;4985895;28;20497;-68
2021/10/11 00:03:09;;;;;;;12.52;2.47;;;;;;;;;;4982780;28;20049;-68
2021/10/11 00:05:35;;;;;;;11.82;1.98;;;;;;;;;;4988891;28;20092;-68
2021/10/11 00:08:01;;;;;;;13.88;3.00;;;;;;;;;;5003585;28;20049;-68
2021/10/11 00:10:27;;;;;;;8.85;2.03;;;;;;;;;;5003937;28;20046;-68
2021/10/11 00:12:55;;;;;;;19.45;2.80;;;;;;;;;;4988927;28;20037;-68
2021/10/11 00:15:22;;;;;;;12.95;1.85;;;;;;;;;;5001390;28;20041;-68
2021/10/11 00:17:48;;;;;;;10.35;2.20;;;;;;;;;;4990587;28;20081;-68
2021/10/11 00:20:14;;;;;;;13.52;2.55;;;;;;;;;;4993292;28;20046;-68
2021/10/11 00:22:41;;;;;;;14.55;3.05;;;;;;;;;;5004454;28;20472;-68
2021/10/11 00:25:08;;;;;;;7.97;2.08;;;;;;;;;;5005718;28;20073;-68
2021/10/11 00:27:34;;;;;;;12.07;1.90;;;;;;;;;;5000050;28;20137;-68
2021/10/11 00:30:01;;;;;;;9.48;1.85;;;;;;;;;;4988910;28;20053;-69
2021/10/11 00:32:27;;;;;;;17.65;2.53;;;;;;;;;;5002627;28;20054;-68
2021/10/11 00:34:53;;;;;;;14.65;1.85;;;;;;;;;;4991016;28;20038;-68
2021/10/11 00:37:20;;;;;;;11.15;2.13;;;;;;;;;;5001073;28;20062;-68
2021/10/11 00:39:46;;;;;;;9.73;2.45;;;;;;;;;;4989586;28;20053;-68
2021/10/11 00:42:12;;;;;;;20.02;2.22;;;;;;;;;;4970760;28;20042;-68
2021/10/11 00:44:38;;;;;;;13.63;2.08;;;;;;;;;;4981864;28;20144;-68
2021/10/11 00:47:05;;;;;;;11.20;2.40;;;;;;;;;;4989347;28;20053;-68
2021/10/11 00:49:31;;;;;;;16.40;2.75;;;;;;;;;;4988998;28;20054;-68
2021/10/11 00:51:57;;;;;;;12.65;2.70;;;;;;;;;;4986944;28;20520;-68
2021/10/11 00:54:24;;;;;;;13.38;2.22;;;;;;;;;;4989207;28;20038;-68
2021/10/11 00:56:51;;;;;;;13.25;1.92;;;;;;;;;;4990654;28;20056;-68
2021/10/11 00:59:17;;;;;;;13.45;2.20;;;;;;;;;;4990676;28;20063;-68
2021/10/11 01:01:43;;;;;;;13.40;2.25;;;;;;;;;;4985274;28;20078;-68
2021/10/11 01:04:10;;;;;;;15.32;2.40;;;;;;;;;;4989563;28;20073;-68
2021/10/11 01:06:37;;;;;;;12.35;2.20;;;;;;;;;;4989480;28;20061;-68
2021/10/11 01:09:04;;;;;;;10.23;2.08;;;;;;;;;;4993814;28;20058;-68
2021/10/11 01:11:30;;;;;;;16.80;2.78;;;;;;;;;;4985392;28;20069;-68
2021/10/11 01:13:57;;;;;;;14.57;2.70;;;;;;;;;;4985990;28;20050;-68
2021/10/11 01:16:23;;;;;;;13.60;1.88;;;;;;;;;;4988941;28;20046;-68
2021/10/11 01:18:49;;;;;;;15.65;2.28;;;;;;;;;;4993384;28;20053;-68
2021/10/11 01:21:15;;;;;;;10.20;1.85;;;;;;;;;;4988887;28;20061;-68
2021/10/11 01:23:41;;;;;;;14.27;3.05;;;;;;;;;;4988694;28;20481;-68
2021/10/11 01:26:08;;;;;;;11.13;2.30;;;;;;;;;;4996834;28;20112;-68
2021/10/11 01:28:34;;;;;;;11.63;2.03;;;;;;;;;;4974070;28;20046;-68
2021/10/11 01:31:00;;;;;;;15.57;2.50;;;;;;;;;;4987716;28;20042;-68
2021/10/11 01:33:26;;;;;;;13.30;2.35;;;;;;;;;;4985417;28;20482;-68
2021/10/11 01:35:52;;;;;;;13.55;3.05;;;;;;;;;;5000652;28;20143;-68
2021/10/11 01:38:18;;;;;;;17.70;2.30;;;;;;;;;;4987310;28;20049;-68
2021/10/11 01:40:45;;;;;;;9.25;1.98;;;;;;;;;;4987258;28;20128;-68
2021/10/11 01:43:11;;;;;;;13.35;3.05;;;;;;;;;;4982557;28;20366;-68
2021/10/11 01:45:38;;;;;;;13.35;2.33;;;;;;;;;;4990332;28;20040;-68
2021/10/11 01:48:05;;;;;;;17.75;2.38;;;;;;;;;;4972807;28;20263;-68
2021/10/11 01:50:32;;;;;;;11.05;2.25;;;;;;;;;;4987255;28;20491;-68
2021/10/11 01:52:58;;;;;;;13.30;2.00;;;;;;;;;;4986884;28;20130;-68
2021/10/11 01:55:24;;;;;;;12.40;1.80;;;;;;;;;;4991361;28;20122;-68
2021/10/11 01:57:51;;;;;;;12.38;2.08;;;;;;;;;;4987415;28;20058;-68
2021/10/11 02:00:17;;;;;;;15.07;2.00;;;;;;;;;;5003204;28;20128;-68
2021/10/11 02:02:43;;;;;;;12.43;2.67;;;;;;;;;;5000630;28;20042;-68
2021/10/11 02:05:10;;;;;;;14.20;2.92;;;;;;;;;;5005045;28;20137;-68
2021/10/11 02:07:36;;;;;;;13.50;1.90;;;;;;;;;;4989203;28;20050;-68
2021/10/11 02:10:03;;;;;;;13.98;2.10;;;;;;;;;;4984944;28;20045;-67
2021/10/11 02:12:30;;;;;;;11.05;1.88;;;;;;;;;;4985810;28;20363;-68
2021/10/11 02:14:56;;;;;;;16.52;3.03;;;;;;;;;;4984022;28;20180;-68
2021/10/11 02:17:22;;;;;;;10.05;1.65;;;;;;;;;;4997988;28;20457;-68
2021/10/11 02:19:48;;;;;;;14.63;2.22;;;;;;;;;;4986885;28;20049;-68
2021/10/11 02:22:14;;;;;;;11.25;2.50;;;;;;;;;;4987047;28;20466;-68
2021/10/11 02:24:40;;;;;;;17.98;2.28;;;;;;;;;;4988232;28;21705;-68
2021/10/11 02:27:08;;;;;;;14.25;2.20;;;;;;;;;;4985971;28;20145;-68
2021/10/11 02:29:34;;;;;;;13.40;2.40;;;;;;;;;;5000577;28;20068;-68
2021/10/11 02:32:00;;;;;;;19.60;2.83;;;;;;;;;;5002149;28;20856;-68
2021/10/11 02:34:26;;;;;;;12.27;2.60;;;;;;;;;;4990652;28;20184;-68
2021/10/11 02:36:52;;;;;;;19.42;3.30;;;;;;;;;;5003718;28;20102;-68
2021/10/11 02:39:19;;;;;;;15.90;2.33;;;;;;;;;;5004504;28;20512;-68
2021/10/11 02:41:45;;;;;;;14.43;2.00;;;;;;;;;;5002570;28;20042;-68
2021/10/11 02:44:11;;;;;;;22.25;3.42;;;;;;;;;;4982313;28;20050;-68
2021/10/11 02:46:37;;;;;;;16.20;3.53;;;;;;;;;;4988774;28;20116;-68
2021/10/11 02:49:03;;;;;;;12.57;2.17;;;;;;;;;;4987886;28;20046;-68
2021/10/11 02:51:29;;;;;;;15.57;2.03;;;;;;;;;;4983553;28;20055;-68
2021/10/11 02:53:56;;;;;;;15.20;3.45;;;;;;;;;;4986773;28;20050;-68
2021/10/11 02:56:22;;;;;;;14.40;2.97;;;;;;;;;;5000859;28;20046;-68
2021/10/11 02:58:48;;;;;;;9.85;2.75;;;;;;;;;;4999702;28;20049;-68
2021/10/11 03:01:14;;;;;;;17.02;2.08;;;;;;;;;;4999892;28;20058;-68
2021/10/11 03:03:40;;;;;;;16.88;2.50;;;;;;;;;;4998452;28;20497;-68
2021/10/11 03:06:07;;;;;;;18.05;2.10;;;;;;;;;;5004986;28;20043;-68
2021/10/11 03:08:33;;;;;;;19.30;2.20;;;;;;;;;;5003451;28;20049;-68
2021/10/11 03:11:00;;;;;;;12.85;2.00;;;;;;;;;;5002473;28;20046;-68
2021/10/11 03:13:27;;;;;;;15.55;2.38;;;;;;;;;;5003148;28;20053;-68
2021/10/11 03:15:53;;;;;;;23.55;3.95;;;;;;;;;;5002915;28;20501;-68
2021/10/11 03:18:19;;;;;;;18.02;2.78;;;;;;;;;;4996385;28;20044;-68
2021/10/11 03:20:46;;;;;;;21.02;2.58;;;;;;;;;;5002607;28;20092;-68
2021/10/11 03:23:12;;;;;;;16.10;2.88;;;;;;;;;;5003017;28;20049;-68
2021/10/11 03:25:38;;;;;;;14.00;2.28;;;;;;;;;;5000012;28;20049;-68
2021/10/11 03:28:04;;;;;;;12.43;2.33;;;;;;;;;;5003025;28;20073;-68
2021/10/11 03:30:32;;;;;;;15.40;2.85;;;;;;;;;;5002864;28;20762;-68
2021/10/11 03:32:58;;;;;;;10.93;2.17;;;;;;;;;;4995387;28;21213;-68
2021/10/11 03:35:27;;;;;;;18.70;2.72;;;;;;;;;;5002619;28;20038;-68
2021/10/11 03:37:53;;;;;;;13.80;2.22;;;;;;;;;;5007057;28;20132;-68
2021/10/11 03:40:19;;;;;;;11.98;2.80;;;;;;;;;;5003570;28;20054;-68
2021/10/11 03:42:45;;;;;;;15.32;2.22;;;;;;;;;;5001238;28;20050;-68
2021/10/11 03:45:12;;;;;;;14.27;2.28;;;;;;;;;;4996674;28;20057;-68
2021/10/11 03:47:39;;;;;;;21.05;2.47;;;;;;;;;;5004039;28;20052;-68
2021/10/11 03:50:06;;;;;;;12.98;2.10;;;;;;;;;;5004073;28;20367;-68
2021/10/11 03:52:32;;;;;;;19.15;3.35;;;;;;;;;;5000850;28;20049;-68
2021/10/11 03:54:59;;;;;;;8.98;2.20;;;;;;;;;;5003720;28;20134;-68
2021/10/11 03:57:25;;;;;;;17.58;2.20;;;;;;;;;;5001315;28;20046;-68
2021/10/11 03:59:51;;;;;;;12.93;1.65;;;;;;;;;;4996216;28;20057;-68
2021/10/11 04:02:18;;;;;;;13.95;2.00;;;;;;;;;;5000938;28;20482;-68
2021/10/11 04:04:44;;;;;;;13.48;2.55;;;;;;;;;;4991152;28;20103;-68
2021/10/11 04:07:14;;;;;;;17.20;2.08;;;;;;;;;;4998330;28;20169;-68
2021/10/11 04:09:43;;;;;;;11.25;1.70;;;;;;;;;;4997817;28;20439;-68
2021/10/11 04:12:18;;;;;;;12.95;1.90;;;;;;;;;;4991463;28;20050;-68
2021/10/11 04:14:45;;;;;;;15.50;2.22;;;;;;;;;;4989883;28;20048;-68
2021/10/11 04:17:11;;;;;;;15.15;2.45;;;;;;;;;;4995461;28;20046;-68
2021/10/11 04:19:37;;;;;;;12.90;1.92;;;;;;;;;;5000140;28;20042;-68
2021/10/11 04:22:04;;;;;;;14.15;2.17;;;;;;;;;;4987115;28;20042;-68
2021/10/11 04:24:30;;;;;;;18.80;2.00;;;;;;;;;;4989238;28;20045;-68
2021/10/11 04:26:56;;;;;;;13.55;2.10;;;;;;;;;;4988534;28;20050;-68
2021/10/11 04:29:22;;;;;;;12.52;2.33;;;;;;;;;;4989980;28;20418;-68
2021/10/11 04:31:49;;;;;;;12.43;1.73;;;;;;;;;;4990358;28;20038;-68
2021/10/11 04:34:15;;;;;;;14.18;2.28;;;;;;;;;;5005776;28;20125;-68
2021/10/11 04:36:41;;;;;;;16.65;2.10;;;;;;;;;;4987497;28;20058;-68
2021/10/11 04:39:07;;;;;;;16.10;2.10;;;;;;;;;;4986923;28;20053;-68
2021/10/11 04:41:33;;;;;;;14.80;2.33;;;;;;;;;;4988128;28;20462;-68
2021/10/11 04:44:00;;;;;;;19.55;2.65;;;;;;;;;;4988118;28;20034;-68
2021/10/11 04:46:26;;;;;;;18.83;2.33;;;;;;;;;;4973699;28;20046;-68
2021/10/11 04:48:52;;;;;;;13.63;2.22;;;;;;;;;;4992963;28;20560;-68
2021/10/11 04:51:18;;;;;;;13.98;2.85;;;;;;;;;;4993104;28;20054;-68
2021/10/11 04:53:44;;;;;;;12.82;2.33;;;;;;;;;;4992584;28;20089;-68
2021/10/11 04:56:11;;;;;;;15.70;3.22;;;;;;;;;;5005090;28;20037;-68
2021/10/11 04:58:37;;;;;;;16.55;2.45;;;;;;;;;;5003118;28;20054;-68
2021/10/11 05:01:03;;;;;;;13.43;2.55;;;;;;;;;;4986606;28;20057;-68
2021/10/11 05:03:29;;;;;;;19.77;2.50;;;;;;;;;;5000018;28;20035;-68
2021/10/11 05:05:55;;;;;;;19.73;3.95;;;;;;;;;;5007800;28;20050;-68
2021/10/11 05:08:21;;;;;;;11.45;2.40;;;;;;;;;;5003874;28;20401;-68
2021/10/11 05:10:48;;;;;;;16.00;2.90;;;;;;;;;;4990910;28;20111;-68
2021/10/11 05:13:14;;;;;;;19.85;2.95;;;;;;;;;;5004622;28;20060;-68
2021/10/11 05:15:40;;;;;;;15.68;2.55;;;;;;;;;;5001378;28;20068;-68
2021/10/11 05:18:06;;;;;;;12.93;2.05;;;;;;;;;;4991275;28;20061;-68
2021/10/11 05:20:34;;;;;;;15.57;2.28;;;;;;;;;;4989608;28;20452;-68
2021/10/11 05:23:00;;;;;;;13.30;2.10;;;;;;;;;;4997794;28;20038;-68
2021/10/11 05:25:27;;;;;;;23.70;2.80;;;;;;;;;;4984904;28;20054;-68
2021/10/11 05:27:54;;;;;;;19.65;3.05;;;;;;;;;;4998637;28;20039;-68
2021/10/11 05:30:20;;;;;;;17.85;2.45;;;;;;;;;;4988272;28;20049;-68
2021/10/11 05:32:48;;;;;;;11.43;1.60;;;;;;;;;;4986582;28;20092;-67
2021/10/11 05:35:14;;;;;;;17.23;1.98;;;;;;;;;;5003496;28;20042;-68
2021/10/11 05:37:40;;;;;;;10.57;1.85;;;;;;;;;;5007344;28;20069;-68
2021/10/11 05:40:07;;;;;;;18.65;2.58;;;;;;;;;;4988813;28;20042;-68
2021/10/11 05:42:33;;;;;;;12.25;2.17;;;;;;;;;;4970316;28;20149;-68
2021/10/11 05:44:59;;;;;;;18.05;2.20;;;;;;;;;;5004921;28;20054;-68
2021/10/11 05:47:26;;;;;;;14.60;2.25;;;;;;;;;;4997246;28;20097;-68
2021/10/11 05:49:52;;;;;;;17.40;2.30;;;;;;;;;;4986734;28;20050;-68
2021/10/11 05:52:18;;;;;;;15.02;2.58;;;;;;;;;;4986398;28;20073;-68
2021/10/11 05:54:47;;;;;;;13.88;1.95;;;;;;;;;;4988539;28;20074;-68
2021/10/11 05:57:14;;;;;;;15.00;2.78;;;;;;;;;;4990321;28;20045;-69
2021/10/11 05:59:40;;;;;;;21.80;2.92;;;;;;;;;;5001672;28;20065;-69
2021/10/11 06:02:06;;;;;;;29.33;3.85;;;;;;;;;;4986394;28;20180;-69
2021/10/11 06:04:32;;;;;;;20.23;2.65;;;;;;;;;;4990228;28;20056;-72
2021/10/11 06:06:58;;;;;;;13.77;2.05;;;;;;;;;;5001868;28;20058;-68
2021/10/11 06:09:25;;;;;;;12.20;2.38;;;;;;;;;;5003667;28;20655;-68
2021/10/11 06:11:51;;;;;;;24.65;2.78;;;;;;;;;;4989915;28;20041;-68
2021/10/11 06:14:18;;;;;;;15.48;2.10;;;;;;;;;;4985874;28;20050;-69
2021/10/11 06:16:44;;;;;;;16.10;2.85;;;;;;;;;;4989815;28;20050;-68
2021/10/11 06:19:11;;;;;;;16.55;2.30;;;;;;;;;;4998203;28;20034;-68
2021/10/11 06:21:37;;;;;;;17.45;3.55;;;;;;;;;;4988745;28;20098;-68
2021/10/11 06:24:04;;;;;;;16.23;2.58;;;;;;;;;;4989390;28;20082;-75
2021/10/11 06:26:30;;;;;;;16.85;2.95;;;;;;;;;;4989281;28;20041;-68
2021/10/11 06:28:56;;;;;;;13.82;2.50;;;;;;;;;;5001542;28;20050;-68
2021/10/11 06:31:22;;;;;;;16.58;2.22;;;;;;;;;;4982141;28;20123;-68
2021/10/11 06:33:49;;;;;;;14.90;2.85;;;;;;;;;;4987258;28;20104;-69
2021/10/11 06:36:15;;;;;;;17.65;2.80;;;;;;;;;;4984746;28;20182;-68
2021/10/11 06:38:41;;;;;;;17.48;2.35;;;;;;;;;;5000314;28;20038;-69
2021/10/11 06:41:07;;;;;;;16.52;2.60;;;;;;;;;;4994076;28;20057;-68
2021/10/11 06:43:33;;;;;;;20.13;2.72;;;;;;;;;;4982273;28;20049;-68
2021/10/11 06:45:59;;;;;;;22.27;2.72;;;;;;;;;;4985016;28;20054;-68
2021/10/11 06:48:26;;;;;;;26.23;3.17;;;;;;;;;;4984964;28;20046;-68
2021/10/11 06:50:52;;;;;;;22.58;3.50;;;;;;;;;;4984404;28;20041;-68
2021/10/11 06:53:18;;;;;;;13.23;2.20;;;;;;;;;;4972463;28;20443;-68
2021/10/11 06:55:44;;;;;;;16.38;2.55;;;;;;;;;;4999869;28;20646;-68
2021/10/11 06:58:10;;;;;;;16.75;2.90;;;;;;;;;;5001655;28;20050;-68
2021/10/11 07:00:37;;;;;;;27.45;3.80;;;;;;;;;;4986804;28;20064;-68
2021/10/11 07:03:05;;;;;;;22.52;3.55;;;;;;;;;;4984437;28;20096;-68
2021/10/11 07:05:32;;;;;;;18.80;3.25;;;;;;;;;;4966059;28;20873;-72
2021/10/11 07:07:59;;;;;;;15.77;2.80;;;;;;;;;;4998143;28;20503;-68
2021/10/11 07:10:26;;;;;;;17.42;3.00;;;;;;;;;;4990476;28;20053;-68
2021/10/11 07:12:52;;;;;;;28.40;3.10;;;;;;;;;;4991140;28;20128;-67
2021/10/11 07:15:19;;;;;;;17.58;2.47;;;;;;;;;;4992225;28;20092;-68
2021/10/11 07:17:45;;;;;;;17.58;2.78;;;;;;;;;;4990948;28;20129;-68
2021/10/11 07:20:11;;;;;;;18.45;3.03;;;;;;;;;;4992986;28;20406;-68
2021/10/11 07:22:38;;;;;;;19.23;2.58;;;;;;;;;;5012229;28;20079;-68
2021/10/11 07:25:04;;;;;;;28.15;2.97;;;;;;;;;;4992407;28;20050;-68
2021/10/11 07:27:30;;;;;;;14.43;2.60;;;;;;;;;;5007556;28;20042;-68
2021/10/11 07:29:57;;;;;;;19.95;2.53;;;;;;;;;;5007968;28;20046;-68
2021/10/11 07:32:23;;;;;;;19.95;3.20;;;;;;;;;;5002734;28;20041;-68
2021/10/11 07:34:49;;;;;;;16.90;2.85;;;;;;;;;;4987418;28;20099;-69
2021/10/11 07:37:15;;;;;;;14.13;2.00;;;;;;;;;;4992452;28;20074;-68
2021/10/11 07:39:41;;;;;;;11.30;2.55;;;;;;;;;;4993169;28;20397;-68
2021/10/11 07:42:08;;;;;;;14.05;2.30;;;;;;;;;;5004279;28;20067;-68
2021/10/11 07:44:36;;;;;;;15.45;3.30;;;;;;;;;;5001667;28;20100;-68
2021/10/11 07:47:02;;;;;;;16.23;2.35;;;;;;;;;;4987179;28;20394;-68
2021/10/11 07:49:29;;;;;;;14.93;2.53;;;;;;;;;;5002860;28;20393;-68
2021/10/11 07:51:55;;;;;;;13.13;1.67;;;;;;;;;;4989816;28;20042;-68
2021/10/11 07:54:21;;;;;;;17.55;2.47;;;;;;;;;;4990322;28;20041;-68
2021/10/11 07:56:48;;;;;;;15.13;2.33;;;;;;;;;;4988806;28;20067;-68
2021/10/11 07:59:15;;;;;;;12.80;2.30;;;;;;;;;;5004056;28;20119;-68
2021/10/11 08:01:41;;;;;;;17.30;2.67;;;;;;;;;;5002450;28;20127;-68
2021/10/11 08:04:07;;;;;;;18.65;2.63;;;;;;;;;;5005423;28;20057;-68
2021/10/11 08:06:34;;;;;;;12.85;2.15;;;;;;;;;;5006422;28;20038;-68
2021/10/11 08:09:00;;;;;;;14.63;2.10;;;;;;;;;;5003658;28;20054;-68
2021/10/11 08:11:26;;;;;;;14.95;2.35;;;;;;;;;;4989451;28;20050;-67
2021/10/11 08:13:52;;;;;;;16.50;2.15;;;;;;;;;;5004844;28;20545;-67
2021/10/11 08:16:18;;;;;;;18.75;3.25;;;;;;;;;;4983026;28;20054;-67
2021/10/11 08:18:45;;;;;;;11.23;1.98;;;;;;;;;;4992792;28;20117;-68
2021/10/11 08:21:11;;;;;;;11.68;2.17;;;;;;;;;;4993191;28;20494;-67
2021/10/11 08:23:41;;;;;;;10.68;2.30;;;;;;;;;;5009143;28;20556;-67
2021/10/11 08:26:08;;;;;;;9.43;1.73;;;;;;;;;;4993110;28;20045;-66
2021/10/11 08:28:34;;;;;;;13.23;1.90;;;;;;;;;;5007842;28;20037;-66
2021/10/11 08:31:00;;;;;;;9.35;1.73;;;;;;;;;;5009712;28;20509;-66
2021/10/11 08:33:27;;;;;;;9.70;1.60;;;;;;;;;;4992058;28;20141;-67
2021/10/11 08:35:53;;;;;;;14.48;2.38;;;;;;;;;;4983577;28;20049;-66
2021/10/11 08:38:20;;;;;;;13.68;2.35;;;;;;;;;;4997827;28;20050;-66
2021/10/11 08:40:48;;;;;;;14.20;2.30;;;;;;;;;;4989948;28;20494;-66
2021/10/11 08:43:14;;;;;;;9.43;1.95;;;;;;;;;;5001194;28;20038;-66
2021/10/11 08:45:43;;;;;;;14.43;2.55;;;;;;;;;;4988525;28;20134;-66
2021/10/11 08:48:09;;;;;;;12.75;2.30;;;;;;;;;;5008162;28;20049;-66
2021/10/11 08:50:35;;;;;;;14.05;2.22;;;;;;;;;;4990797;28;20124;-66
2021/10/11 08:53:03;;;;;;;17.45;2.30;;;;;;;;;;5008386;28;20096;-66
2021/10/11 08:55:30;;;;;;;15.45;2.03;;;;;;;;;;4990521;28;20175;-67
2021/10/11 08:58:02;;;;;;;15.82;1.83;;;;;;;;;;5008713;28;20133;-67
2021/10/11 09:00:32;;;;;;;19.13;3.07;;;;;;;;;;4995306;28;20165;-67
2021/10/11 09:02:59;;;;;;;11.90;1.33;;;;;;;;;;5007454;28;20060;-67
2021/10/11 09:05:32;;;;;;;11.52;1.45;;;;;;;;;;4990904;28;20073;-66
2021/10/11 09:08:05;;;;;;;12.95;1.80;;;;;;;;;;5007002;28;20042;-66
2021/10/11 09:10:32;;;;;;;17.35;2.13;;;;;;;;;;5005533;28;20049;-67
2021/10/11 09:12:59;;;;;;;13.15;2.20;;;;;;;;;;5008788;28;20049;-67
2021/10/11 09:15:31;;;;;;;12.73;2.05;;;;;;;;;;4991479;28;20121;-67
2021/10/11 09:18:03;;;;;;;15.77;1.83;;;;;;;;;;4992650;28;20654;-67
2021/10/11 09:20:29;;;;;;;16.52;3.53;;;;;;;;;;5008187;28;20050;-66
2021/10/11 09:22:56;;;;;;;15.73;2.38;;;;;;;;;;5008538;28;20465;-67
2021/10/11 09:25:31;;;;;;;15.25;2.00;;;;;;;;;;4990888;28;20041;-67
2021/10/11 09:27:57;;;;;;;5.53;1.50;;;;;;;;;;5005346;28;20070;-67
2021/10/11 09:30:26;;;;;;;8.95;1.50;;;;;;;;;;4990430;28;20058;-66
2021/10/11 09:33:05;;;;;;;14.10;1.83;;;;;;;;;;4975869;28;20053;-67
2021/10/11 09:35:32;;;;;;;13.80;1.85;;;;;;;;;;5003703;28;20346;-66
2021/10/11 09:37:58;;;;;;;11.57;2.22;;;;;;;;;;5006988;28;20046;-66
2021/10/11 09:40:25;;;;;;;9.98;1.70;;;;;;;;;;5008181;28;20097;-66
2021/10/11 09:42:52;;;;;;;13.25;2.05;;;;;;;;;;4994047;28;20486;-67
2021/10/11 09:45:23;;;;;;;11.23;2.28;;;;;;;;;;4991707;28;20046;-66
2021/10/11 09:47:50;;;;;;;12.40;2.40;;;;;;;;;;5005103;28;20478;-66
2021/10/11 09:50:17;;;;;;;8.73;1.65;;;;;;;;;;5007781;28;20046;-66
2021/10/11 09:52:43;;;;;;;10.38;1.67;;;;;;;;;;5004828;28;20121;-66
2021/10/11 09:55:10;;;;;;;11.52;2.00;;;;;;;;;;4992047;28;20073;-66
2021/10/11 09:57:37;;;;;;;13.45;2.03;;;;;;;;;;4988739;28;20056;-67
2021/10/11 10:00:07;;;;;;;107.50;16.05;;;;;;;;;;4977340;28;20479;-66
2021/10/11 10:02:35;;;;;;;11.13;2.28;;;;;;;;;;4977543;28;20064;-67
2021/10/11 10:05:02;;;;;;;9.95;1.95;;;;;;;;;;4975647;28;20517;-66
2021/10/11 10:07:33;;;;;;;10.57;1.90;;;;;;;;;;4981460;28;20410;-67
2021/10/11 10:10:02;;;;;;;14.30;2.50;;;;;;;;;;4987751;28;20491;-66
2021/10/11 10:12:29;;;;;;;12.48;2.00;;;;;;;;;;4982870;28;20039;-66
2021/10/11 10:14:58;;;;;;;13.48;1.83;;;;;;;;;;4984578;28;20037;-67
2021/10/11 10:17:30;;;;;;;12.60;2.75;;;;;;;;;;4973486;28;20124;-66
2021/10/11 10:20:04;;;;;;;11.32;2.10;;;;;;;;;;4975282;28;20053;-66
2021/10/11 10:22:30;;;;;;;13.98;1.90;;;;;;;;;;4961503;28;20093;-67
2021/10/11 10:25:05;;;;;;;13.80;2.40;;;;;;;;;;4970541;28;20097;-66
2021/10/11 10:27:36;;;;;;;14.18;2.70;;;;;;;;;;4986530;28;20057;-66
2021/10/11 10:30:13;;;;;;;12.50;1.90;;;;;;;;;;4985611;28;20550;-66
2021/10/11 10:32:39;;;;;;;13.30;1.92;;;;;;;;;;4992496;28;20394;-67
2021/10/11 10:35:06;;;;;;;13.20;2.58;;;;;;;;;;4973692;28;20066;-66
2021/10/11 10:37:37;;;;;;;11.68;2.17;;;;;;;;;;4978987;28;20038;-66
2021/10/11 10:40:09;;;;;;;11.82;1.80;;;;;;;;;;4971085;28;20103;-67
2021/10/11 10:42:35;;;;;;;14.45;1.95;;;;;;;;;;4979755;28;20043;-66
2021/10/11 10:45:02;;;;;;;12.85;2.20;;;;;;;;;;4974256;28;20050;-66
2021/10/11 10:47:35;;;;;;;8.32;1.65;;;;;;;;;;4984084;28;20514;-66
2021/10/11 10:50:02;;;;;;;6.55;1.10;;;;;;;;;;4986289;28;20136;-66
2021/10/11 10:52:28;;;;;;;9.15;1.35;;;;;;;;;;4987052;28;20053;-67
2021/10/11 10:54:58;;;;;;;10.32;1.42;;;;;;;;;;4978552;28;20046;-66
2021/10/11 10:57:26;;;;;;;4.38;1.23;;;;;;;;;;4995344;28;20089;-68
2021/10/11 10:59:54;;;;;;;8.90;1.60;;;;;;;;;;4995808;28;20099;-67
2021/10/11 11:02:20;;;;;;;10.40;1.58;;;;;;;;;;4991545;28;20083;-67
2021/10/11 11:04:52;;;;;;;9.20;1.30;;;;;;;;;;4992669;28;20053;-67
2021/10/11 11:07:24;;;;;;;8.77;1.42;;;;;;;;;;5006456;28;20460;-67
2021/10/11 11:09:50;;;;;;;6.78;1.40;;;;;;;;;;5004469;28;20494;-67
2021/10/11 11:12:27;;;;;;;8.40;1.48;;;;;;;;;;4990734;28;20097;-67
2021/10/11 11:14:53;;;;;;;7.82;2.20;;;;;;;;;;4991739;28;20054;-67
2021/10/11 11:17:27;;;;;;;15.07;2.65;;;;;;;;;;5005115;28;20046;-67
2021/10/11 11:19:53;;;;;;;8.35;1.38;;;;;;;;;;4991430;28;20057;-67
2021/10/11 11:22:27;;;;;;;14.02;2.05;;;;;;;;;;5005822;28;20129;-67
2021/10/11 11:24:56;;;;;;;11.95;2.75;;;;;;;;;;4988003;28;20129;-67
2021/10/11 11:27:28;;;;;;;7.78;1.48;;;;;;;;;;5003623;28;20049;-66
2021/10/11 11:29:56;;;;;;;9.35;1.25;;;;;;;;;;5004434;28;20053;-66
2021/10/11 11:32:22;;;;;;;7.57;1.55;;;;;;;;;;5002006;28;20346;-66
2021/10/11 11:34:48;;;;;;;15.25;1.73;;;;;;;;;;4998620;28;20129;-66
2021/10/11 11:37:15;;;;;;;11.50;2.45;;;;;;;;;;4989137;28;20135;-66
2021/10/11 11:39:41;;;;;;;18.45;2.40;;;;;;;;;;4993064;28;20371;-66
2021/10/11 11:42:07;;;;;;;27.23;3.30;;;;;;;;;;5006432;28;20120;-66
2021/10/11 11:44:34;;;;;;;22.52;2.95;;;;;;;;;;4990121;28;20042;-66
2021/10/11 11:47:01;;;;;;;27.50;2.80;;;;;;;;;;4991534;28;20045;-66
2021/10/11 11:49:27;;;;;;;18.05;2.63;;;;;;;;;;4983974;28;20100;-67
2021/10/11 11:52:12;;;;;;;11.80;1.70;;;;;;;;;;5005670;28;20080;-66
2021/10/11 11:54:39;;;;;;;6.60;1.13;;;;;;;;;;5002781;28;20050;-66
2021/10/11 11:57:06;;;;;;;8.00;1.65;;;;;;;;;;5009177;28;20048;-66
2021/10/11 11:59:32;;;;;;;6.55;1.30;;;;;;;;;;4991988;28;20050;-66
2021/10/11 12:02:01;;;;;;;8.02;1.50;;;;;;;;;;4990094;28;20053;-66
2021/10/11 12:04:28;;;;;;;6.07;1.38;;;;;;;;;;4981723;28;20435;-66
2021/10/11 12:06:55;;;;;;;10.70;1.55;;;;;;;;;;5009624;28;20062;-67
2021/10/11 12:09:21;;;;;;;8.40;1.58;;;;;;;;;;4985238;28;20498;-67
2021/10/11 12:11:48;;;;;;;7.15;1.10;;;;;;;;;;4978373;28;20129;-67
2021/10/11 12:14:15;;;;;;;7.65;1.35;;;;;;;;;;4991707;28;20081;-67
2021/10/11 12:16:41;;;;;;;5.80;1.00;;;;;;;;;;5009652;28;20078;-67
2021/10/11 12:19:07;;;;;;;8.30;1.40;;;;;;;;;;5000112;28;20038;-68
2021/10/11 12:21:37;;;;;;;8.13;1.42;;;;;;;;;;4993555;28;20100;-67
2021/10/11 12:24:05;;;;;;;8.95;1.67;;;;;;;;;;4994746;28;20121;-67
2021/10/11 12:26:31;;;;;;;5.95;1.10;;;;;;;;;;4990347;28;20394;-67
2021/10/11 12:28:59;;;;;;;7.88;1.10;;;;;;;;;;4992915;28;20042;-67
2021/10/11 12:31:28;;;;;;;6.38;1.15;;;;;;;;;;4993188;28;20416;-67
2021/10/11 12:34:03;;;;;;;5.03;1.20;;;;;;;;;;4993970;28;20368;-67
2021/10/11 12:36:30;;;;;;;3.20;0.55;;;;;;;;;;4995185;28;20100;-67
2021/10/11 12:38:56;;;;;;;5.70;0.70;;;;;;;;;;4994998;28;20122;-67
2021/10/11 12:41:22;;;;;;;8.15;0.95;;;;;;;;;;4994558;28;20061;-67
2021/10/11 12:43:53;;;;;;;4.88;0.90;;;;;;;;;;4996012;28;20661;-67
2021/10/11 12:46:19;;;;;;;6.18;0.88;;;;;;;;;;4992760;28;20050;-66
2021/10/11 12:48:51;;;;;;;7.90;1.20;;;;;;;;;;4993949;28;20099;-66
2021/10/11 12:51:25;;;;;;;14.15;2.63;;;;;;;;;;4990573;28;20130;-66
2021/10/11 12:54:05;;;;;;;6.35;1.50;;;;;;;;;;4991598;28;20046;-66
2021/10/11 12:56:32;;;;;;;6.78;1.55;;;;;;;;;;5008893;28;20073;-66
2021/10/11 12:58:59;;;;;;;5.50;1.02;;;;;;;;;;4995964;28;20038;-73
2021/10/11 13:01:25;;;;;;;4.13;1.00;;;;;;;;;;4994866;28;20042;-73
2021/10/11 13:03:51;;;;;;;6.60;1.00;;;;;;;;;;4988509;28;20474;-80
2021/10/11 13:06:22;;;;;;;7.30;1.25;;;;;;;;;;4994196;28;20497;-73
2021/10/11 13:08:48;;;;;;;6.15;0.90;;;;;;;;;;5007508;28;20042;-73
2021/10/11 13:11:14;;;;;;;8.45;1.23;;;;;;;;;;5009072;28;20088;-74
2021/10/11 13:13:40;;;;;;;8.38;1.35;;;;;;;;;;5008723;28;20045;-92
2021/10/11 13:16:06;;;;;;;10.38;1.20;;;;;;;;;;4992167;28;20399;-72
2021/10/11 13:18:33;;;;;;;17.40;2.42;;;;;;;;;;5009418;28;20581;-77
2021/10/11 13:21:00;;;;;;;8.88;1.60;;;;;;;;;;4994042;28;20042;-72
2021/10/11 13:23:27;;;;;;;7.95;2.17;;;;;;;;;;5008432;28;20498;-71
2021/10/11 13:25:53;;;;;;;8.75;1.10;;;;;;;;;;5009135;28;20033;-70
2021/10/11 13:28:19;;;;;;;9.27;0.82;;;;;;;;;;4995033;28;20394;-71
2021/10/11 13:31:24;;;;;;;5.68;1.15;;;;;;;;;;4991724;28;20233;-70
2021/10/11 13:34:06;;;;;;;4.40;1.13;;;;;;;;;;4995910;28;20061;-74
2021/10/11 13:39:35;;;;;;;5.30;0.95;;;;;;;;;;4998496;28;20046;-74
2021/10/11 14:28:27;;;;;;;9.75;1.10;;;;;;;;;;4990212;28;20107;-75
2021/10/11 14:31:08;;;;;;;8.63;1.35;;;;;;;;;;4990864;28;20053;-75
2021/10/11 14:33:52;;;;;;;7.75;1.13;;;;;;;;;;5006719;28;20116;-75
2021/10/11 15:58:55;;;;;;;13.57;2.00;;;;;;;;;;5010744;28;20518;-76
2021/10/11 16:01:24;;;;;;;13.82;1.88;;;;;;;;;;4997672;28;20061;-76
2021/10/11 16:03:50;;;;;;;10.50;1.63;;;;;;;;;;5014293;28;20097;-76
2021/10/11 16:06:18;;;;;;;13.80;2.95;;;;;;;;;;4994479;28;20037;-76
2021/10/11 16:08:44;;;;;;;9.50;1.50;;;;;;;;;;4994318;28;20163;-76
2021/10/11 16:11:10;;;;;;;9.35;1.52;;;;;;;;;;4993936;28;20541;-76
2021/10/11 16:13:36;;;;;;;9.65;1.13;;;;;;;;;;4995246;28;20049;-76
2021/10/11 16:16:03;;;;;;;9.10;1.15;;;;;;;;;;4995723;28;20034;-76
2021/10/11 16:18:30;;;;;;;7.18;0.82;;;;;;;;;;4997199;28;20042;-75
2021/10/11 16:21:00;;;;;;;4.93;1.05;;;;;;;;;;4996614;28;20050;-76
2021/10/11 16:23:27;;;;;;;7.32;1.27;;;;;;;;;;5008576;28;20137;-75
2021/10/11 16:25:53;;;;;;;5.68;1.08;;;;;;;;;;4994432;28;20549;-76
2021/10/11 16:28:21;;;;;;;6.47;1.92;;;;;;;;;;4994283;28;20107;-76
2021/10/11 16:30:47;;;;;;;3.50;0.65;;;;;;;;;;4991560;28;20045;-76
2021/10/11 16:33:15;;;;;;;5.75;1.35;;;;;;;;;;4991782;28;20081;-76
2021/10/11 16:35:41;;;;;;;7.18;1.05;;;;;;;;;;4997037;28;20435;-76
2021/10/11 16:38:08;;;;;;;2.60;0.60;;;;;;;;;;4994160;28;20053;-78
2021/10/11 16:40:36;;;;;;;3.72;0.60;;;;;;;;;;4994091;28;20049;-76
2021/10/11 16:43:02;;;;;;;7.25;1.10;;;;;;;;;;4993636;28;21081;-75
2021/10/11 16:45:29;;;;;;;5.32;0.90;;;;;;;;;;4995999;28;20080;-79